Bei Facebook empfehlenBei Twitter postenGoogle plusPinterest

Das Wetter im Erzgebirge am 07.05.2017

Wetter und Klima am 07.05.2017 Holzhau im Erzgebirge (630m ü.NN)
Letzte gemessene Temperatur und Uhrzeit der Messung23:45:00 Uhr4.50 °C
Temperatur (Maximum / Höchstwert) und Uhrzeit der Messung11:00:00 Uhr15.30 °C
Temperatur (Minimum / Tiefstwert) und Uhrzeit der Messung05:30:003.60 °C
Errechneter Absolutwert der Temperaturschwankungen zwischen Tmin und Tmax des Tages11.70 K
Errechnete Tagesmitteltemperatur9.93333 °C
Gesamt - Niederschlag des Tages (in flüssiger Form)0.00 Liter / m²
Luftdruck (Maximum / Höchstwert) und Zeitpunkt der Messung23:15:00 Uhr1009.00 hPa
Luftdruck (Minimum / Tiefstwert) und Zeitpunkt der Messung03:15:00 Uhr1006.60 hPa
Errechneter Absolutwert der Luftdruckschwankungen des Tages2.40 hPa
Höchste gemessene Windgeschwindigkeit und Uhrzeit der Messung12:15:00 Uhr12.24 km/h
Errechnete Windhäufigkeit in Relation zu den Messwerten des Tages19.79167 %
Niedrigste Windkühle (Windchill) und Zeitpunkt der Messung05:30:00 Uhr3.60 °C
Taupunkt (Maximum / Höchstwert) und Uhrzeit der Messung08:45:00 Uhr10.50 °C
Taupunkt (Minimum / Tiefstwert) und Uhrzeit der Messung05:15:002.40 °C
Anzahl der automatisch eingelesenen Messwerte 96

Detaillierte Wetter- und Klima- Messwerte für den 07.05.2017 in Holzhau im Erzgebirge (630m ü.NN)
ZeitTemperaturLuftdruckRel. LuftfeuchteWindWindrichtungWindchillTaupunktNiederschlag l/m²
23:45:004.50 °C1008.80 hPa90.00 %3.00 °C 
23:30:004.40 °C1008.90 hPa90.00 %2.90 °C 
23:15:004.60 °C1009.00 hPa89.00 %2.90 °C 
23:00:004.90 °C1008.70 hPa88.00 %3.10 °C 
22:45:005.30 °C1008.80 hPa88.00 %3.50 °C 
22:30:005.70 °C1008.80 hPa87.00 %3.70 °C 
22:15:006.10 °C1008.80 hPa87.00 %4.10 °C 
22:00:006.80 °C1008.80 hPa86.00 %4.60 °C 
21:45:007.20 °C1008.80 hPa84.00 %4.70 °C 
21:30:007.80 °C1008.80 hPa83.00 %5.10 °C 
21:15:008.50 °C1008.70 hPa82.00 %5.60 °C 
21:00:009.40 °C1008.60 hPa81.00 %6.30 °C 
20:45:0010.20 °C1008.40 hPa79.00 %6.70 °C 
20:30:0010.80 °C1008.10 hPa79.00 %7.30 °C 
20:15:0011.10 °C1008.10 hPa79.00 %7.60 °C 
20:00:0011.40 °C1008.10 hPa79.00 %7.90 °C 
19:45:0011.60 °C1008.20 hPa78.00 %7.90 °C 
19:30:0011.80 °C1008.00 hPa77.00 %7.90 °C 
19:15:0012.10 °C1008.20 hPa76.00 %8.00 °C 
19:00:0012.40 °C1008.00 hPa75.00 %8.10 °C 
18:45:0012.70 °C1008.10 hPa73.00 %8.00 °C 
18:30:0012.80 °C1008.00 hPa72.00 %7.90 °C 
18:15:0013.30 °C1008.00 hPa70.00 %8.00 °C 
18:00:0014.00 °C1008.10 hPa67.00 %8.00 °C 
17:45:0014.80 °C1008.00 hPa67.00 %5.04 km/hNNW15.20 °C8.70 °C 
17:30:0014.80 °C1008.30 hPa67.00 %0.72 km/hNW14.80 °C8.70 °C 
17:15:0014.40 °C1008.10 hPa68.00 %8.60 °C 
17:00:0014.00 °C1008.00 hPa70.00 %8.60 °C 
16:45:0013.80 °C1008.40 hPa72.00 %2.88 km/hW13.80 °C8.80 °C 
16:30:0013.60 °C1008.30 hPa71.00 %4.32 km/hO13.60 °C8.40 °C 
16:15:0013.30 °C1008.40 hPa72.00 %2.88 km/hW13.30 °C8.40 °C 
16:00:0013.90 °C1008.30 hPa68.00 %4.68 km/hWNW13.90 °C8.10 °C 
15:45:0014.90 °C1008.30 hPa66.00 %8.60 °C 
15:30:0014.40 °C1008.50 hPa70.00 %4.68 km/hNW14.40 °C9.00 °C 
15:15:0013.90 °C1008.40 hPa71.00 %8.70 °C 
15:00:0013.90 °C1008.70 hPa69.00 %8.30 °C 
14:45:0014.50 °C1008.60 hPa68.00 %3.24 km/hW14.50 °C8.70 °C 
14:30:0014.40 °C1008.50 hPa69.00 %4.32 km/hWNW14.40 °C8.80 °C 
14:15:0014.20 °C1008.60 hPa68.00 %8.40 °C 
14:00:0013.90 °C1008.60 hPa71.00 %8.70 °C 
13:45:0013.20 °C1008.90 hPa70.00 %3.24 km/hNNW13.20 °C7.90 °C 
13:30:0013.70 °C1008.80 hPa70.00 %8.30 °C 
13:15:0013.40 °C1008.90 hPa72.00 %0.72 km/hNW13.40 °C8.50 °C 
13:00:0013.60 °C1009.00 hPa70.00 %2.88 km/hW13.60 °C8.20 °C 
12:45:0013.40 °C1009.00 hPa68.00 %7.60 °C 
12:30:0014.30 °C1008.70 hPa65.00 %7.80 °C 
12:15:0014.40 °C1008.90 hPa66.00 %12.24 km/hWNW13.60 °C8.10 °C 
12:00:0014.40 °C1008.50 hPa69.00 %8.80 °C 
11:45:0014.30 °C1008.70 hPa66.00 %3.24 km/hN14.30 °C8.00 °C 
11:30:0015.20 °C1008.50 hPa64.00 %9.00 km/hSW15.00 °C8.40 °C 
11:15:0014.90 °C1008.50 hPa65.00 %8.40 °C 
11:00:0015.30 °C1008.30 hPa63.00 %8.30 °C 
10:45:0015.20 °C1008.10 hPa66.00 %8.90 °C 
10:30:0014.10 °C1007.90 hPa72.00 %4.68 km/hWSW14.10 °C9.10 °C 
10:15:0013.50 °C1008.10 hPa74.00 %9.00 °C 
10:00:0013.60 °C1008.00 hPa75.00 %9.30 °C 
09:45:0013.10 °C1007.80 hPa77.00 %9.20 °C 
09:30:0012.50 °C1007.90 hPa77.00 %5.04 km/hNW12.60 °C8.60 °C 
09:15:0012.60 °C1007.80 hPa79.00 %9.10 °C 
09:00:0013.30 °C1007.70 hPa80.00 %1.08 km/hSSW13.30 °C9.90 °C 
08:45:0012.30 °C1007.60 hPa89.00 %3.96 km/hSO12.30 °C10.50 °C 
08:30:0010.60 °C1007.50 hPa93.00 %9.50 °C 
08:15:009.60 °C1007.50 hPa94.00 %8.70 °C 
08:00:008.80 °C1007.60 hPa94.00 %7.90 °C 
07:45:008.30 °C1007.50 hPa95.00 %7.50 °C 
07:30:007.50 °C1007.40 hPa94.00 %6.60 °C 
07:15:006.90 °C1007.20 hPa94.00 %6.00 °C 
07:00:006.40 °C1007.10 hPa95.00 %5.70 °C 
06:45:006.00 °C1007.10 hPa95.00 %5.30 °C 
06:30:005.50 °C1007.00 hPa95.00 %4.80 °C 
06:15:005.00 °C1007.10 hPa94.00 %4.10 °C 
06:00:004.70 °C1007.00 hPa94.00 %3.80 °C 
05:45:004.10 °C1006.80 hPa94.00 %3.20 °C 
05:30:003.60 °C1006.80 hPa93.00 %2.60 °C 
05:15:003.60 °C1006.80 hPa92.00 %2.40 °C 
05:00:003.90 °C1006.70 hPa92.00 %2.70 °C 
04:45:004.30 °C1006.70 hPa92.00 %3.10 °C 
04:30:004.80 °C1006.70 hPa92.00 %3.60 °C 
04:15:005.30 °C1006.70 hPa92.00 %4.10 °C 
04:00:005.90 °C1006.70 hPa93.00 %4.90 °C 
03:45:006.10 °C1006.80 hPa93.00 %5.10 °C 
03:30:005.80 °C1006.80 hPa93.00 %4.80 °C 
03:15:005.80 °C1006.60 hPa93.00 %4.80 °C 
03:00:005.80 °C1006.60 hPa92.00 %4.60 °C 
02:45:005.90 °C1006.60 hPa92.00 %4.70 °C 
02:30:006.30 °C1006.60 hPa92.00 %5.10 °C 
02:15:006.60 °C1006.70 hPa92.00 %5.40 °C 
02:00:006.50 °C1006.80 hPa92.00 %5.30 °C 
01:45:006.90 °C1006.90 hPa92.00 %5.70 °C 
01:30:007.00 °C1006.90 hPa92.00 %5.80 °C 
01:15:006.60 °C1006.80 hPa92.00 %5.40 °C 
01:00:006.50 °C1006.80 hPa92.00 %5.30 °C 
00:45:006.40 °C1006.90 hPa92.00 %5.20 °C 
00:30:006.50 °C1006.90 hPa91.00 %5.10 °C 
00:15:006.80 °C1006.70 hPa91.00 %5.40 °C 
00:00:006.90 °C1006.80 hPa91.00 %5.50 °C 

Permanenter Link zu dieser Seite: Wetter im Erzgebirge am 07.05.2017
Performance-Info: Die Erstellung der Seite / Statistik(en) / Tabelle(n) erforderte 5 Datenbankserver-Abfrage(n) und dauerte 102 Millisekunden. (Dieser Messwert ist von der Gesamt-Auslastung des Servers abhängig.)
Erzgebirge - Wetter | Erzgebirge - Wetter (Mobilgeräte) | Komplette Klimadatenbank